createdAt,value
2023-03-10T00:01:34.399Z,15.20
2023-03-10T00:04:02.337Z,10.97
2023-03-10T00:06:33.812Z,9.27
2023-03-10T00:09:01.389Z,10.15
2023-03-10T00:11:28.581Z,11.27
2023-03-10T00:13:55.757Z,14.07
2023-03-10T00:16:26.465Z,11.27
2023-03-10T00:18:54.291Z,12.88
2023-03-10T00:21:28.382Z,11.52
2023-03-10T00:23:56.112Z,10.10
2023-03-10T00:26:25.997Z,12.20
2023-03-10T00:28:53.850Z,13.40
2023-03-10T00:31:23.528Z,12.23
2023-03-10T00:33:52.190Z,10.55
2023-03-10T00:36:28.222Z,11.20
2023-03-10T00:38:56.962Z,14.30
2023-03-10T00:41:26.281Z,12.70
2023-03-10T00:43:53.826Z,12.02
2023-03-10T00:46:21.200Z,13.73
2023-03-10T00:48:48.668Z,12.15
2023-03-10T00:51:16.306Z,11.48
2023-03-10T00:53:43.758Z,13.87
2023-03-10T00:56:20.210Z,12.95
2023-03-10T00:58:50.800Z,11.07
2023-03-10T01:01:33.792Z,10.85
2023-03-10T01:04:07.143Z,11.65
2023-03-10T01:06:35.258Z,12.97
2023-03-10T01:09:03.355Z,11.57
2023-03-10T01:11:31.309Z,12.82
2023-03-10T01:14:00.934Z,11.02
2023-03-10T01:16:28.987Z,10.18
2023-03-10T01:18:57.424Z,10.40
2023-03-10T01:21:36.443Z,10.50
2023-03-10T01:24:04.833Z,11.48
2023-03-10T01:26:32.369Z,8.55
2023-03-10T01:28:59.585Z,8.80
2023-03-10T01:31:27.112Z,7.53
2023-03-10T01:33:54.936Z,9.82
2023-03-10T01:36:26.141Z,10.63
2023-03-10T01:38:55.525Z,10.90
2023-03-10T01:41:23.609Z,10.82
2023-03-10T01:43:56.151Z,12.43
2023-03-10T01:46:40.437Z,10.07
2023-03-10T01:49:20.099Z,7.50
2023-03-10T01:51:51.302Z,13.65
2023-03-10T01:54:28.330Z,8.82
2023-03-10T01:56:57.317Z,10.73
2023-03-10T01:59:27.352Z,11.55
2023-03-10T02:01:58.440Z,11.23
2023-03-10T02:04:44.429Z,10.63
2023-03-10T02:07:13.029Z,10.82
2023-03-10T02:09:44.735Z,9.13
2023-03-10T02:12:13.284Z,9.07
2023-03-10T02:14:42.846Z,9.75
2023-03-10T02:17:13.833Z,12.18
2023-03-10T02:19:47.674Z,10.68
2023-03-10T02:22:17.069Z,13.03
2023-03-10T02:24:53.661Z,11.60
2023-03-10T02:27:39.374Z,11.73
2023-03-10T02:30:15.291Z,12.65
2023-03-10T02:32:47.443Z,13.63
2023-03-10T02:35:14.782Z,12.90
2023-03-10T02:37:53.681Z,11.52
2023-03-10T02:40:34.413Z,11.93
2023-03-10T02:43:21.713Z,12.77
2023-03-10T02:45:55.636Z,12.50
2023-03-10T02:48:32.504Z,13.30
2023-03-10T02:51:04.322Z,13.48
2023-03-10T02:53:31.532Z,11.25
2023-03-10T02:56:00.065Z,12.75
2023-03-10T02:58:31.288Z,11.43
2023-03-10T03:00:59.378Z,10.03
2023-03-10T03:03:26.709Z,11.48
2023-03-10T03:05:54.392Z,11.45
2023-03-10T03:08:21.714Z,10.20
2023-03-10T03:10:49.031Z,12.60
2023-03-10T03:13:16.514Z,13.17
2023-03-10T03:15:43.892Z,13.52
2023-03-10T03:18:11.668Z,12.55
2023-03-10T03:20:40.949Z,12.25
2023-03-10T03:23:08.947Z,13.63
2023-03-10T03:25:39.132Z,12.33
2023-03-10T03:28:09.339Z,11.90
2023-03-10T03:30:37.118Z,10.35
2023-03-10T03:33:06.386Z,10.77
2023-03-10T03:35:35.603Z,10.23
2023-03-10T03:38:04.422Z,12.40
2023-03-10T03:40:33.634Z,13.73
2023-03-10T03:43:02.063Z,12.75
2023-03-10T03:45:31.945Z,9.63
2023-03-10T03:48:00.261Z,10.80
2023-03-10T03:50:28.957Z,12.57
2023-03-10T03:53:01.498Z,11.52
2023-03-10T03:55:30.439Z,13.93
2023-03-10T03:57:58.204Z,11.82
2023-03-10T04:00:25.748Z,8.70
2023-03-10T04:03:00.562Z,8.87
2023-03-10T04:05:29.264Z,11.07
2023-03-10T04:07:56.641Z,9.52
2023-03-10T04:10:24.367Z,10.23
2023-03-10T04:12:51.749Z,9.95
2023-03-10T04:15:19.311Z,12.30
2023-03-10T04:17:46.544Z,9.73
2023-03-10T04:20:14.341Z,9.48
2023-03-10T04:22:45.216Z,10.10
2023-03-10T04:25:13.538Z,9.13
2023-03-10T04:27:41.648Z,10.47
2023-03-10T04:30:12.643Z,9.63
2023-03-10T04:32:41.728Z,10.55
2023-03-10T04:35:12.778Z,9.73
2023-03-10T04:37:41.820Z,9.52
2023-03-10T04:40:12.882Z,9.97
2023-03-10T04:42:41.058Z,8.25
2023-03-10T04:45:09.457Z,9.52
2023-03-10T04:47:37.450Z,11.15
2023-03-10T04:50:06.312Z,9.18
2023-03-10T04:52:33.506Z,6.43
2023-03-10T04:55:00.839Z,11.60
2023-03-10T04:57:28.047Z,10.18
2023-03-10T04:59:55.548Z,8.32
2023-03-10T05:02:23.374Z,9.13
2023-03-10T05:04:51.245Z,8.17
2023-03-10T05:07:18.749Z,9.57
2023-03-10T05:09:48.593Z,8.40
2023-03-10T05:12:16.012Z,9.48
2023-03-10T05:14:43.402Z,7.93
2023-03-10T05:17:11.431Z,9.17
2023-03-10T05:19:39.158Z,10.93
2023-03-10T05:22:07.791Z,7.97
2023-03-10T05:24:37.035Z,7.30
2023-03-10T05:27:04.405Z,10.70
2023-03-10T05:29:32.347Z,8.47
2023-03-10T05:32:07.795Z,7.80
2023-03-10T05:34:38.625Z,8.00
2023-03-10T05:37:06.272Z,7.75
2023-03-10T05:39:34.171Z,9.68
2023-03-10T05:42:04.845Z,6.57
2023-03-10T05:44:34.595Z,7.80
2023-03-10T05:47:03.912Z,6.97
2023-03-10T05:49:31.226Z,8.82
2023-03-10T05:51:59.080Z,9.07
2023-03-10T05:54:26.878Z,9.90
2023-03-10T05:56:54.095Z,8.80
2023-03-10T05:59:24.126Z,7.55
2023-03-10T06:01:52.544Z,7.30
2023-03-10T06:04:19.853Z,9.80
2023-03-10T06:06:47.013Z,9.17
2023-03-10T06:09:14.225Z,9.07
2023-03-10T06:11:41.411Z,8.13
2023-03-10T06:14:09.547Z,6.35
2023-03-10T06:16:36.745Z,7.93
2023-03-10T06:19:03.973Z,7.37
2023-03-10T06:21:31.156Z,8.18
2023-03-10T06:23:59.261Z,6.32
2023-03-10T06:26:26.636Z,9.63
2023-03-10T06:28:53.883Z,9.15
2023-03-10T06:31:24.333Z,9.00
2023-03-10T06:33:52.395Z,9.07
2023-03-10T06:36:20.974Z,9.55
2023-03-10T06:38:48.745Z,8.50
2023-03-10T06:41:16.636Z,8.27
2023-03-10T06:43:44.384Z,7.07
2023-03-10T06:46:12.818Z,9.55
2023-03-10T06:48:43.859Z,10.90
2023-03-10T06:51:15.006Z,10.23
2023-03-10T06:53:42.462Z,10.82
2023-03-10T06:56:13.759Z,10.80
2023-03-10T06:58:41.889Z,10.10
2023-03-10T07:01:28.200Z,10.07
2023-03-10T07:03:55.726Z,7.82
2023-03-10T07:06:23.701Z,9.85
2023-03-10T07:08:51.952Z,6.13
2023-03-10T07:11:19.190Z,7.90
2023-03-10T07:13:46.739Z,8.93
2023-03-10T07:16:14.052Z,10.77
2023-03-10T07:18:41.270Z,11.05
2023-03-10T07:21:09.915Z,10.03
2023-03-10T07:23:37.804Z,11.38
2023-03-10T07:26:08.447Z,8.70
2023-03-10T07:28:37.698Z,8.05
2023-03-10T07:31:07.500Z,9.25
2023-03-10T07:33:34.824Z,11.83
2023-03-10T07:36:06.899Z,6.45
2023-03-10T07:38:34.482Z,10.05
2023-03-10T07:41:05.482Z,10.60
2023-03-10T07:43:32.627Z,8.90
2023-03-10T07:45:59.894Z,9.83
2023-03-10T07:48:27.114Z,10.07
2023-03-10T07:50:59.004Z,9.80
2023-03-10T07:53:26.824Z,9.82
2023-03-10T07:55:54.324Z,10.48
2023-03-10T07:58:22.097Z,12.20
2023-03-10T08:00:57.022Z,11.82
2023-03-10T08:03:26.178Z,12.20
2023-03-10T08:05:53.871Z,11.65
2023-03-10T08:08:21.414Z,12.25
2023-03-10T08:10:48.615Z,11.67
2023-03-10T08:13:15.882Z,7.97
2023-03-10T08:15:43.100Z,9.85
2023-03-10T08:18:12.786Z,12.73
2023-03-10T08:20:40.719Z,12.75
2023-03-10T08:23:08.047Z,11.10
2023-03-10T08:25:35.529Z,11.38
2023-03-10T08:28:02.715Z,14.40
2023-03-10T08:30:29.913Z,12.50
2023-03-10T08:32:57.198Z,11.70
2023-03-10T08:35:24.553Z,10.50
2023-03-10T08:37:55.131Z,11.13
2023-03-10T08:40:22.710Z,7.97
2023-03-10T08:42:50.100Z,9.32
2023-03-10T08:45:18.050Z,10.23
2023-03-10T08:47:45.260Z,8.03
2023-03-10T08:50:13.209Z,7.22
2023-03-10T08:52:40.927Z,7.97
2023-03-10T08:55:08.646Z,6.95
2023-03-10T08:57:35.868Z,8.07
2023-03-10T09:00:06.319Z,8.43
2023-03-10T09:02:33.895Z,8.05
2023-03-10T09:05:01.252Z,8.95
2023-03-10T09:07:28.579Z,7.93
2023-03-10T09:09:55.824Z,6.95
2023-03-10T09:12:23.012Z,8.43
2023-03-10T09:14:50.252Z,7.05
2023-03-10T09:17:17.503Z,6.95
2023-03-10T09:19:44.633Z,5.53
2023-03-10T09:22:11.742Z,6.05
2023-03-10T09:24:38.929Z,7.20
2023-03-10T09:27:06.251Z,5.78
2023-03-10T09:29:43.078Z,6.18
2023-03-10T09:32:10.946Z,5.55
2023-03-10T09:34:38.390Z,7.00
2023-03-10T09:37:07.485Z,6.10
2023-03-10T09:39:35.757Z,5.93
2023-03-10T09:42:14.926Z,5.88
2023-03-10T09:44:51.709Z,6.03
2023-03-10T09:47:47.650Z,6.78
2023-03-10T09:50:38.638Z,6.30
2023-03-10T09:53:14.498Z,6.70
2023-03-10T09:55:47.984Z,7.25
2023-03-10T09:58:43.570Z,6.93
2023-03-10T10:01:21.302Z,5.70
2023-03-10T10:03:59.675Z,7.13
2023-03-10T10:06:32.101Z,6.38
2023-03-10T10:09:07.088Z,7.32
2023-03-10T10:11:38.727Z,4.88
2023-03-10T10:14:22.250Z,7.35
2023-03-10T10:17:01.934Z,7.47
2023-03-10T10:19:29.191Z,7.13
2023-03-10T10:22:10.643Z,8.25
2023-03-10T10:24:38.527Z,6.38
2023-03-10T10:27:05.904Z,11.23
2023-03-10T10:29:38.613Z,12.30
2023-03-10T10:32:09.977Z,9.50
2023-03-10T10:34:40.628Z,11.07
2023-03-10T10:37:28.469Z,10.63
2023-03-10T10:39:57.935Z,10.63
2023-03-10T10:42:27.883Z,12.50
2023-03-10T10:44:59.306Z,13.93
2023-03-10T10:47:29.291Z,9.88
2023-03-10T10:50:11.011Z,11.57
2023-03-10T10:52:38.364Z,8.82
2023-03-10T10:55:06.045Z,10.47
2023-03-10T10:57:35.894Z,11.52
2023-03-10T11:00:32.448Z,11.40
2023-03-10T11:03:00.501Z,8.45
2023-03-10T11:05:38.611Z,9.88
2023-03-10T11:08:27.016Z,9.73
2023-03-10T11:11:04.173Z,12.57
2023-03-10T11:13:43.782Z,10.13
2023-03-10T11:16:47.152Z,9.77
2023-03-10T11:20:01.833Z,7.72
2023-03-10T11:22:43.746Z,8.90
2023-03-10T11:25:38.974Z,8.95
2023-03-10T11:28:24.884Z,12.90
2023-03-10T11:31:07.214Z,6.88
2023-03-10T11:34:08.828Z,10.18
2023-03-10T11:36:55.775Z,9.87
2023-03-10T11:39:32.533Z,10.95
2023-03-10T11:42:30.507Z,10.57
2023-03-10T11:45:24.584Z,6.65
2023-03-10T11:48:02.335Z,7.53
2023-03-10T11:50:55.140Z,6.37
2023-03-10T11:53:38.668Z,13.32
2023-03-10T11:56:08.750Z,11.98
2023-03-10T11:58:59.717Z,9.52
2023-03-10T12:01:45.983Z,7.95
2023-03-10T12:04:26.264Z,8.40
2023-03-10T12:07:07.794Z,10.60
2023-03-10T12:09:46.382Z,10.57
2023-03-10T12:12:16.994Z,9.07
2023-03-10T12:14:46.181Z,10.50
2023-03-10T12:17:15.562Z,12.17
2023-03-10T12:20:12.089Z,12.75
2023-03-10T12:22:52.260Z,11.00
2023-03-10T12:25:28.737Z,11.63
2023-03-10T12:28:16.887Z,10.70
2023-03-10T12:30:51.034Z,9.93
2023-03-10T12:33:42.329Z,10.57
2023-03-10T12:36:32.516Z,11.35
2023-03-10T12:39:27.522Z,13.90
2023-03-10T12:41:56.817Z,8.90
2023-03-10T12:44:58.391Z,11.63
2023-03-10T12:47:49.062Z,11.57
2023-03-10T12:50:32.134Z,12.88
2023-03-10T12:53:39.782Z,11.40
2023-03-10T12:56:42.022Z,11.70
2023-03-10T12:59:17.344Z,16.53
2023-03-10T13:01:55.625Z,14.43
2023-03-10T13:04:25.686Z,14.73
2023-03-10T13:07:03.341Z,18.73
2023-03-10T13:09:42.179Z,15.57
2023-03-10T13:12:26.333Z,14.67
2023-03-10T13:14:59.218Z,17.75
2023-03-10T13:17:29.506Z,20.23
2023-03-10T13:20:19.496Z,19.40
2023-03-10T13:22:58.433Z,13.70
2023-03-10T13:25:26.626Z,14.70
2023-03-10T13:27:57.197Z,16.15
2023-03-10T13:30:29.066Z,13.18
2023-03-10T13:33:02.388Z,15.93
2023-03-10T13:35:36.052Z,18.63
2023-03-10T13:38:18.935Z,22.23
2023-03-10T13:41:00.864Z,16.40
2023-03-10T13:43:36.096Z,12.88
2023-03-10T13:46:15.340Z,16.98
2023-03-10T13:48:43.512Z,19.00
2023-03-10T13:51:32.415Z,14.13
2023-03-10T13:54:24.122Z,15.20
2023-03-10T13:57:07.267Z,12.48
2023-03-10T13:59:36.485Z,11.20
2023-03-10T14:02:04.611Z,12.67
2023-03-10T14:04:49.866Z,11.80
2023-03-10T14:07:19.054Z,7.60
2023-03-10T14:09:49.093Z,8.90
2023-03-10T14:12:44.488Z,11.75
2023-03-10T14:15:14.711Z,7.07
2023-03-10T14:17:43.613Z,7.68
2023-03-10T14:20:32.366Z,7.63
2023-03-10T14:23:00.399Z,6.60
2023-03-10T14:25:27.744Z,6.82
2023-03-10T14:30:43.843Z,14.63
2023-03-10T14:33:15.916Z,10.70
2023-03-10T14:35:43.817Z,9.95
2023-03-10T14:38:11.535Z,8.27
2023-03-10T14:40:42.272Z,7.43
2023-03-10T14:43:15.595Z,6.40
2023-03-10T14:45:45.075Z,8.23
2023-03-10T14:48:18.180Z,11.07
2023-03-10T14:50:46.577Z,6.38
2023-03-10T14:53:19.433Z,5.27
2023-03-10T14:55:49.403Z,4.00
2023-03-10T14:58:32.774Z,6.45
2023-03-10T15:01:00.696Z,5.45
2023-03-10T15:03:27.936Z,5.93
2023-03-10T15:05:55.171Z,7.80
2023-03-10T15:08:22.358Z,9.25
2023-03-10T15:10:51.939Z,10.93
2023-03-10T15:13:21.433Z,9.02
2023-03-10T15:15:49.435Z,5.20
2023-03-10T15:18:20.394Z,8.33
2023-03-10T15:20:47.927Z,8.32
2023-03-10T15:23:19.370Z,6.30
2023-03-10T15:25:47.443Z,8.32
2023-03-10T15:28:14.713Z,5.78
2023-03-10T15:30:42.162Z,9.23
2023-03-10T15:33:10.665Z,9.45
2023-03-10T15:35:38.865Z,9.23
2023-03-10T15:38:06.468Z,7.50
2023-03-10T15:40:34.733Z,5.05
2023-03-10T15:43:02.025Z,3.97
2023-03-10T15:45:31.150Z,3.85
2023-03-10T15:47:58.765Z,3.22
2023-03-10T15:50:25.981Z,2.10
2023-03-10T15:52:55.751Z,3.22
2023-03-10T15:55:23.824Z,4.00
2023-03-10T15:57:51.609Z,5.10
2023-03-10T16:00:20.666Z,2.15
2023-03-10T16:02:48.992Z,1.77
2023-03-10T16:05:17.160Z,1.85
2023-03-10T16:07:44.427Z,6.93
2023-03-10T16:10:13.763Z,3.17
2023-03-10T16:12:40.939Z,4.75
2023-03-10T16:15:08.858Z,3.30
2023-03-10T16:17:36.076Z,5.47
2023-03-10T16:20:08.761Z,2.50
2023-03-10T16:22:40.314Z,5.68
2023-03-10T16:25:15.059Z,6.60
2023-03-10T16:27:44.089Z,4.25
2023-03-10T16:30:16.242Z,3.25
2023-03-10T16:32:47.898Z,3.47
2023-03-10T16:35:16.096Z,1.25
2023-03-10T16:37:43.586Z,2.65
2023-03-10T16:40:11.540Z,2.20
2023-03-10T16:42:38.891Z,4.07
2023-03-10T16:45:07.157Z,1.80
2023-03-10T16:47:34.378Z,2.70
2023-03-10T16:50:01.580Z,1.17
2023-03-10T16:52:28.789Z,1.23
2023-03-10T16:55:01.427Z,2.08
2023-03-10T16:57:28.721Z,1.63
2023-03-10T16:59:55.959Z,5.05
2023-03-10T17:02:23.135Z,1.98
2023-03-10T17:04:50.364Z,2.35
2023-03-10T17:07:19.156Z,2.38
2023-03-10T17:09:46.443Z,2.40
2023-03-10T17:12:13.753Z,3.38
2023-03-10T17:14:41.105Z,3.88
2023-03-10T17:17:08.402Z,3.72
2023-03-10T17:19:35.714Z,4.03
2023-03-10T17:22:03.028Z,2.93
2023-03-10T17:24:31.253Z,1.67
2023-03-10T17:26:58.452Z,1.40
2023-03-10T17:29:25.660Z,1.92
2023-03-10T17:31:52.926Z,2.17
2023-03-10T17:34:20.353Z,1.80
2023-03-10T17:36:50.672Z,1.90
2023-03-10T17:39:20.212Z,1.48
2023-03-10T17:41:48.325Z,2.25
2023-03-10T17:44:16.318Z,4.43
2023-03-10T17:46:43.537Z,4.00
2023-03-10T17:49:15.507Z,2.45
2023-03-10T17:51:44.210Z,4.65
2023-03-10T17:54:14.170Z,3.35
2023-03-10T17:56:41.922Z,4.85
2023-03-10T17:59:11.039Z,4.20
2023-03-10T18:01:38.369Z,1.35
2023-03-10T18:04:05.573Z,3.10
2023-03-10T18:06:35.273Z,7.43
2023-03-10T18:09:05.820Z,6.78
2023-03-10T18:11:33.798Z,8.17
2023-03-10T18:14:03.514Z,5.97
2023-03-10T18:16:33.641Z,4.05
2023-03-10T18:19:01.516Z,4.50
2023-03-10T18:21:28.736Z,2.78
2023-03-10T18:23:56.275Z,5.90
2023-03-10T18:26:26.286Z,2.78
2023-03-10T18:28:53.854Z,5.88
2023-03-10T18:31:24.136Z,2.33
2023-03-10T18:33:51.664Z,5.00
2023-03-10T18:36:20.314Z,8.57
2023-03-10T18:38:48.426Z,4.38
2023-03-10T18:41:19.131Z,5.32
2023-03-10T18:43:46.725Z,3.38
2023-03-10T18:46:14.418Z,9.68
2023-03-10T18:48:42.029Z,7.47
2023-03-10T18:51:10.741Z,7.22
2023-03-10T18:53:39.222Z,4.20
2023-03-10T18:56:07.593Z,6.85
2023-03-10T18:58:34.826Z,7.78
2023-03-10T19:01:01.972Z,6.37
2023-03-10T19:03:30.455Z,3.97
2023-03-10T19:05:58.005Z,7.53
2023-03-10T19:08:26.937Z,3.88
2023-03-10T19:10:59.416Z,2.30
2023-03-10T19:13:28.652Z,4.73
2023-03-10T19:15:56.395Z,9.27
2023-03-10T19:18:24.229Z,2.65
2023-03-10T19:20:51.633Z,4.43
2023-03-10T19:23:19.019Z,9.30
2023-03-10T19:25:46.250Z,5.60
2023-03-10T19:28:13.416Z,5.20
2023-03-10T19:30:42.804Z,4.78
2023-03-10T19:33:10.925Z,4.60
2023-03-10T19:35:38.762Z,6.32
2023-03-10T19:38:06.420Z,4.63
2023-03-10T19:40:33.733Z,5.15
2023-03-10T19:43:01.226Z,5.85
2023-03-10T19:45:28.738Z,9.40
2023-03-10T19:47:59.485Z,3.47
2023-03-10T19:50:26.787Z,4.57
2023-03-10T19:52:53.996Z,4.97
2023-03-10T19:55:23.343Z,6.80
2023-03-10T19:57:53.250Z,4.20
2023-03-10T20:00:25.224Z,20.65
2023-03-10T20:02:53.840Z,21.47
2023-03-10T20:05:22.033Z,10.90
2023-03-10T20:07:49.305Z,7.47
2023-03-10T20:10:18.142Z,2.75
2023-03-10T20:12:47.175Z,10.57
2023-03-10T20:15:14.958Z,12.53
2023-03-10T20:17:42.131Z,7.18
2023-03-10T20:20:10.763Z,7.68
2023-03-10T20:22:39.925Z,9.90
2023-03-10T20:25:08.767Z,4.40
2023-03-10T20:27:36.754Z,8.97
2023-03-10T20:30:15.778Z,11.13
2023-03-10T20:32:43.725Z,4.18
2023-03-10T20:35:12.379Z,9.65
2023-03-10T20:37:41.768Z,6.68
2023-03-10T20:40:15.057Z,10.27
2023-03-10T20:42:42.634Z,9.98
2023-03-10T20:45:10.945Z,8.57
2023-03-10T20:47:38.343Z,9.85
2023-03-10T20:50:07.631Z,6.32
2023-03-10T20:52:37.251Z,6.70
2023-03-10T20:55:06.794Z,11.50
2023-03-10T20:57:34.562Z,7.25
2023-03-10T21:00:02.716Z,9.75
2023-03-10T21:02:29.901Z,4.50
2023-03-10T21:04:57.086Z,3.93
2023-03-10T21:07:24.332Z,7.80
2023-03-10T21:09:51.873Z,9.52
2023-03-10T21:12:21.085Z,8.25
2023-03-10T21:14:48.359Z,5.88
2023-03-10T21:17:15.544Z,5.30
2023-03-10T21:19:42.750Z,12.65
2023-03-10T21:22:09.924Z,11.50
2023-03-10T21:24:37.992Z,14.70
2023-03-10T21:27:05.328Z,8.10
2023-03-10T21:29:34.267Z,5.90
2023-03-10T21:32:01.495Z,5.88
2023-03-10T21:34:31.140Z,8.20
2023-03-10T21:36:58.842Z,9.73
2023-03-10T21:39:26.469Z,12.95
2023-03-10T21:41:53.614Z,8.67
2023-03-10T21:44:20.769Z,6.45
2023-03-10T21:46:49.191Z,5.03
2023-03-10T21:49:17.080Z,5.95
2023-03-10T21:51:44.264Z,1.77
2023-03-10T21:54:11.549Z,4.47
2023-03-10T21:56:38.846Z,3.55
2023-03-10T21:59:07.224Z,6.15
2023-03-10T22:01:34.594Z,4.93
2023-03-10T22:04:01.883Z,2.10
2023-03-10T22:06:29.120Z,3.93
2023-03-10T22:08:56.449Z,3.85
2023-03-10T22:11:23.718Z,2.05
2023-03-10T22:13:53.365Z,4.78
2023-03-10T22:16:20.685Z,1.48
2023-03-10T22:18:49.441Z,1.97
2023-03-10T22:21:17.706Z,7.03
2023-03-10T22:23:45.202Z,4.25
2023-03-10T22:26:13.163Z,6.18
2023-03-10T22:28:40.397Z,13.02
2023-03-10T22:31:09.403Z,6.63
2023-03-10T22:33:36.651Z,4.40
2023-03-10T22:36:11.137Z,2.10
2023-03-10T22:38:38.574Z,7.63
2023-03-10T22:41:11.042Z,7.32
2023-03-10T22:43:38.236Z,3.03
2023-03-10T22:46:14.362Z,1.73
2023-03-10T22:48:42.260Z,5.38
2023-03-10T22:51:12.671Z,3.60
2023-03-10T22:53:40.070Z,7.57
2023-03-10T22:56:07.847Z,6.43
2023-03-10T22:58:35.974Z,5.43
2023-03-10T23:01:03.280Z,4.32
2023-03-10T23:03:30.545Z,2.75
2023-03-10T23:06:00.672Z,3.95
2023-03-10T23:08:28.542Z,3.57
2023-03-10T23:10:55.776Z,2.75
2023-03-10T23:13:23.030Z,5.68
2023-03-10T23:15:50.427Z,6.80
2023-03-10T23:18:19.653Z,3.72
2023-03-10T23:20:49.076Z,2.73
2023-03-10T23:23:18.131Z,2.05
2023-03-10T23:25:47.592Z,1.48
2023-03-10T23:28:15.808Z,8.68
2023-03-10T23:30:44.641Z,7.70
2023-03-10T23:33:17.841Z,4.20
2023-03-10T23:35:46.304Z,5.47
2023-03-10T23:38:13.532Z,3.83
2023-03-10T23:40:40.722Z,4.25
2023-03-10T23:43:08.101Z,6.82
2023-03-10T23:45:37.487Z,9.27
2023-03-10T23:48:10.060Z,4.78
2023-03-10T23:50:39.823Z,3.15
2023-03-10T23:53:09.691Z,7.25
2023-03-10T23:55:40.360Z,1.70
2023-03-10T23:58:08.278Z,2.20
